.
WxDataArchive / Data Records for 2014-05-24
2014-05-23 May 2014 2014-05-25

Data Records for Saturday, 24 May 2014

Time	Temp	Chill	HIndex	Humid	Dewpt	 Wind 	HiWind	WindDir	Rain 	Barom
-----	----	-----	------	-----	-----	------	------	-------	-----	-----
00:00	57.3	57.3	57.3	66	46.0	0	1	315	0.00	30.148 
00:05	57.2	57.2	57.2	66	45.9	0	1	315	0.00	30.148 
00:10	57.0	57.0	57.0	67	46.2	0	1	315	0.00	30.148 
00:15	56.9	56.9	56.9	67	46.1	0	1	315	0.00	30.147 
00:20	56.7	56.7	56.7	67	45.9	0	1	315	0.00	30.147 
00:25	56.6	56.6	56.6	68	46.2	0	1	315	0.00	30.147 
00:30	56.5	56.5	56.5	68	46.1	0	0	---	0.00	30.149 
00:35	56.3	56.3	56.3	69	46.3	0	0	---	0.00	30.149 
00:40	56.0	56.0	56.0	69	46.0	0	0	---	0.00	30.149 
00:45	56.0	56.0	56.0	69	46.0	0	1	315	0.00	30.148 
00:50	55.7	55.7	55.7	70	46.1	0	0	---	0.00	30.148 
00:55	55.6	55.6	55.6	70	46.0	0	0	---	0.00	30.148 
01:00	55.4	55.4	55.4	71	46.2	0	0	---	0.00	30.148 
01:05	55.3	55.3	55.3	71	46.1	0	0	---	0.00	30.148 
01:10	55.1	55.1	55.1	72	46.2	0	0	---	0.00	30.148 
01:15	55.0	55.0	55.0	72	46.1	0	0	---	0.00	30.148 
01:20	54.8	54.8	54.8	73	46.3	0	0	---	0.00	30.148 
01:25	54.7	54.7	54.7	73	46.2	0	0	---	0.00	30.148 
01:30	54.4	54.4	54.4	73	45.9	0	0	---	0.00	30.144 
01:35	54.2	54.2	54.2	74	46.1	0	0	---	0.00	30.144 
01:40	54.1	54.1	54.1	75	46.4	0	1	315	0.00	30.144 
01:45	53.9	53.9	53.9	75	46.2	0	0	---	0.00	30.147 
01:50	53.8	53.8	53.8	75	46.1	0	0	---	0.00	30.147 
01:55	53.6	53.6	53.6	76	46.2	0	0	---	0.00	30.147 
02:00	53.5	53.5	53.5	76	46.1	0	0	---	0.00	30.148 
02:05	53.3	53.3	53.3	76	45.9	0	0	---	0.00	30.148 
02:10	53.2	53.2	53.2	77	46.2	0	0	---	0.00	30.148 
02:15	53.1	53.1	53.1	77	46.1	0	0	---	0.00	30.140 
02:20	52.8	52.8	52.8	77	45.8	0	0	---	0.00	30.140 
02:25	52.8	52.8	52.8	78	46.1	0	0	---	0.00	30.140 
02:30	52.6	52.6	52.6	79	46.3	0	0	---	0.00	30.138 
02:35	52.5	52.5	52.5	79	46.2	0	0	---	0.00	30.138 
02:40	52.3	52.3	52.3	79	46.0	0	0	---	0.00	30.138 
02:45	52.2	52.2	52.2	80	46.2	0	0	---	0.00	30.134 
02:50	52.0	52.0	52.0	80	46.0	0	0	---	0.00	30.134 
02:55	51.7	51.7	51.7	80	45.7	0	0	---	0.00	30.134 
03:00	51.6	51.6	51.6	81	46.0	0	0	---	0.00	30.131 
03:05	51.4	51.4	51.4	81	45.8	0	0	---	0.00	30.131 
03:10	51.3	51.3	51.3	82	46.0	0	0	---	0.00	30.131 
03:15	51.3	51.3	51.3	82	46.0	0	0	---	0.00	30.137 
03:20	51.1	51.1	51.1	82	45.8	0	0	---	0.00	30.137 
03:25	51.0	51.0	51.0	83	46.0	0	0	---	0.00	30.137 
03:30	50.8	50.8	50.8	83	45.8	0	0	---	0.00	30.144 
03:35	50.7	50.7	50.7	83	45.7	0	0	---	0.00	30.144 
03:40	50.5	50.5	50.5	83	45.5	0	0	---	0.00	30.144 
03:45	50.4	50.4	50.4	84	45.7	0	0	---	0.00	30.146 
03:50	50.1	50.1	50.1	84	45.5	0	0	---	0.00	30.146 
03:55	49.9	49.9	49.9	84	45.3	0	0	---	0.00	30.146 
04:00	49.8	49.8	49.8	84	45.2	0	0	---	0.00	30.148 
04:05	49.6	49.6	49.6	85	45.3	0	0	---	0.00	30.148 
04:10	49.5	49.5	49.5	85	45.2	0	0	---	0.00	30.148 
04:15	49.4	49.4	49.4	86	45.4	0	0	---	0.00	30.148 
04:20	49.1	49.1	49.1	86	45.1	0	0	---	0.00	30.148 
04:25	49.1	49.1	49.1	86	45.1	0	0	---	0.00	30.148 
04:30	48.9	48.9	48.9	87	45.2	0	0	---	0.00	30.150 
04:35	48.8	48.8	48.8	87	45.1	0	0	---	0.00	30.150 
04:40	48.6	48.6	48.6	87	44.9	0	0	---	0.00	30.150 
04:45	48.5	48.5	48.5	87	44.8	0	0	---	0.00	30.154 
04:50	48.3	48.3	48.3	88	44.9	0	0	---	0.00	30.154 
04:55	48.2	48.2	48.2	88	44.8	0	0	---	0.00	30.154 
05:00	48.0	48.0	48.0	88	44.6	0	0	---	0.00	30.160 
05:05	47.9	47.9	47.9	88	44.5	0	0	---	0.00	30.160 
05:10	47.9	47.9	47.9	88	44.5	0	0	---	0.00	30.160 
05:15	47.7	47.7	47.7	89	44.6	0	0	---	0.00	30.163 
05:20	47.7	47.7	47.7	89	44.6	0	0	---	0.00	30.163 
05:25	47.6	47.6	47.6	89	44.5	0	0	---	0.00	30.163 
05:30	47.6	47.6	47.6	89	44.5	0	0	---	0.00	30.164 
05:35	47.4	47.4	47.4	89	44.3	0	0	---	0.00	30.164 
05:40	47.3	47.3	47.3	89	44.2	0	0	---	0.00	30.164 
05:45	47.3	47.3	47.3	90	44.5	0	0	---	0.00	30.164 
05:50	47.1	47.1	47.1	90	44.3	0	0	---	0.00	30.164 
05:55	47.1	47.1	47.1	90	44.3	0	0	---	0.00	30.164 
06:00	47.0	47.0	47.0	90	44.2	0	0	---	0.00	30.164 
06:05	47.0	47.0	47.0	90	44.2	0	0	---	0.00	30.164 
06:10	46.8	46.8	46.8	90	44.0	0	0	---	0.00	30.164 
06:15	46.7	46.7	46.7	90	43.9	0	0	---	0.00	30.167 
06:20	46.7	46.7	46.7	91	44.2	0	0	---	0.00	30.167 
06:25	46.7	46.7	46.7	91	44.2	0	0	---	0.00	30.167 
06:30	46.5	46.5	46.5	91	44.0	0	0	---	0.00	30.173 
06:35	46.7	46.7	46.7	91	44.2	0	0	---	0.00	30.173 
06:40	46.7	46.7	46.7	91	44.2	0	0	---	0.00	30.173 
06:45	46.7	46.7	46.7	91	44.2	0	0	---	0.00	30.175 
06:50	46.8	46.8	46.8	92	44.6	0	0	---	0.00	30.175 
06:55	47.0	47.0	47.0	92	44.8	0	0	---	0.00	30.175 
07:00	47.1	47.1	47.1	92	44.9	0	0	---	0.00	30.179 
07:05	47.4	47.4	47.4	92	45.2	0	0	---	0.00	30.179 
07:10	47.9	47.9	47.9	92	45.7	0	0	---	0.00	30.179 
07:15	48.2	48.2	48.2	92	46.0	0	0	---	0.00	30.183 
07:20	48.6	48.6	48.6	92	46.4	0	0	---	0.00	30.183 
07:25	49.1	49.1	49.1	92	46.9	0	0	---	0.00	30.183 
07:30	49.6	49.6	49.6	92	47.4	0	0	---	0.00	30.183 
07:35	50.2	50.2	50.2	92	48.0	0	0	---	0.00	30.183 
07:40	50.8	50.8	50.8	92	48.6	0	0	---	0.00	30.183 
07:45	51.6	51.6	51.6	92	49.4	0	0	---	0.00	30.180 
07:50	52.2	52.2	52.2	92	49.9	0	0	---	0.00	30.180 
07:55	52.9	52.9	52.9	91	50.3	0	0	---	0.00	30.180 
08:00	53.9	53.9	53.9	89	50.7	0	0	---	0.00	30.181 
08:05	55.3	55.3	55.3	87	51.5	0	0	---	0.00	30.181 
08:10	56.5	56.5	56.5	83	51.4	0	0	---	0.00	30.181 
08:15	57.3	57.3	57.3	79	50.8	0	0	---	0.00	30.183 
08:20	58.6	58.6	58.6	75	50.7	0	1	112	0.00	30.183 
08:25	59.5	59.5	59.5	73	50.8	0	0	---	0.00	30.183 
08:30	60.1	60.1	60.1	69	49.9	0	1	112	0.00	30.186 
08:35	60.4	60.4	60.4	69	50.2	0	1	112	0.00	30.186 
08:40	61.2	61.2	61.2	67	50.2	0	2	112	0.00	30.186 
08:45	62.1	62.1	62.1	66	50.6	0	1	112	0.00	30.186 
08:50	62.7	62.7	62.7	63	49.9	1	3	112	0.00	30.186 
08:55	62.9	62.9	62.9	62	49.7	1	3	112	0.00	30.186 
09:00	63.2	63.2	63.2	63	50.4	1	3	112	0.00	30.189 
09:05	63.7	63.7	63.7	62	50.4	1	2	112	0.00	30.189 
09:10	64.2	64.2	64.2	62	50.9	0	2	112	0.00	30.189 
09:15	64.7	64.7	64.7	61	50.9	1	2	112	0.00	30.196 
09:20	64.8	64.8	64.8	60	50.6	2	4	112	0.00	30.196 
09:25	65.0	65.0	65.0	62	51.7	1	2	112	0.00	30.196 
09:30	65.2	65.2	65.2	60	51.0	1	3	112	0.00	30.201 
09:35	65.6	65.6	65.6	60	51.3	1	3	112	0.00	30.201 
09:40	66.1	66.1	66.1	58	50.9	1	3	112	0.00	30.201 
09:45	66.6	66.6	66.6	58	51.4	0	3	112	0.00	30.202 
09:50	67.1	67.1	67.1	56	50.9	0	2	112	0.00	30.202 
09:55	67.8	67.8	67.8	56	51.5	0	2	112	0.00	30.202 
10:00	68.6	68.6	68.6	54	51.3	0	2	112	0.00	30.200 
10:05	69.3	69.3	69.3	53	51.4	0	3	112	0.00	30.200 
10:10	69.1	69.1	69.1	50	49.7	1	4	112	0.00	30.200 
10:15	69.3	69.3	69.3	50	49.8	0	2	112	0.00	30.202 
10:20	69.8	69.8	69.8	50	50.3	0	2	112	0.00	30.202 
10:25	70.4	70.4	70.4	50	50.9	0	1	112	0.00	30.202 
10:30	70.9	70.9	70.9	49	50.8	0	1	112	0.00	30.200 
10:35	70.9	70.9	70.9	49	50.8	1	4	112	0.00	30.200 
10:40	70.6	70.6	70.6	50	51.0	0	3	112	0.00	30.200 
10:45	70.8	70.8	70.8	49	50.7	1	3	112	0.00	30.200 
10:50	70.9	70.9	70.9	49	50.8	1	2	112	0.00	30.200 
10:55	71.1	71.1	71.1	49	51.0	1	3	112	0.00	30.200 
11:00	71.1	71.1	71.1	49	51.0	1	3	112	0.00	30.199 
11:05	71.5	71.5	71.5	49	51.3	0	1	112	0.00	30.199 
11:10	71.8	71.8	71.8	46	49.9	1	3	112	0.00	30.199 
11:15	72.0	72.0	72.0	46	50.1	1	3	112	0.00	30.201 
11:20	72.0	72.0	72.0	44	48.9	1	5	112	0.00	30.201 
11:25	71.6	71.6	71.6	44	48.5	1	4	90	0.00	30.201 
11:30	72.1	72.1	72.1	46	50.2	1	5	90	0.00	30.196 
11:35	72.3	72.3	72.3	44	49.2	1	4	90	0.00	30.196 
11:40	72.1	72.1	72.1	43	48.4	1	4	90	0.00	30.196 
11:45	71.8	71.8	71.8	46	49.9	0	2	90	0.00	30.193 
11:50	72.0	72.0	72.0	44	48.9	1	5	90	0.00	30.193 
11:55	72.7	72.7	72.7	45	50.1	0	3	90	0.00	30.193 
12:00	73.5	73.5	73.5	43	49.6	0	2	90	0.00	30.188 
12:05	74.2	74.2	74.2	48	53.2	1	3	90	0.00	30.188 
12:10	73.3	73.3	73.3	42	48.8	1	4	90	0.00	30.188 
12:15	72.7	72.7	72.7	43	48.9	0	2	90	0.00	30.189 
12:20	72.8	72.8	72.8	44	49.6	1	5	90	0.00	30.189 
12:25	73.0	73.0	73.0	41	47.9	2	4	90	0.00	30.189 
12:30	73.2	73.2	73.2	43	49.3	0	2	90	0.00	30.186 
12:35	73.5	73.5	73.5	41	48.3	1	4	90	0.00	30.186 
12:40	73.7	73.7	73.7	44	50.4	0	4	315	0.00	30.186 
12:45	73.3	73.3	73.3	41	48.2	1	5	112	0.00	30.183 
12:50	73.2	73.2	73.2	44	50.0	0	2	112	0.00	30.183 
12:55	72.8	72.8	72.8	41	47.7	1	3	112	0.00	30.183 
13:00	73.2	73.2	73.2	46	51.2	0	1	45	0.00	30.179 
13:05	73.9	73.9	73.9	44	50.6	0	1	45	0.00	30.179 
13:10	74.6	74.6	74.6	43	50.6	1	3	45	0.00	30.179 
13:15	74.6	74.6	74.6	41	49.3	1	3	45	0.00	30.177 
13:20	74.0	74.0	74.0	37	46.1	1	4	45	0.00	30.177 
13:25	74.0	74.0	74.0	42	49.4	1	3	112	0.00	30.177 
13:30	74.7	74.7	74.7	43	50.7	0	2	112	0.00	30.173 
13:35	74.9	74.9	74.9	40	48.9	1	4	112	0.00	30.173 
13:40	74.4	74.4	74.4	43	50.4	2	4	112	0.00	30.173 
13:45	74.0	74.0	74.0	43	50.1	2	5	112	0.00	30.173 
13:50	74.2	74.2	74.2	41	49.0	1	4	112	0.00	30.173 
13:55	74.0	74.0	74.0	41	48.8	0	3	112	0.00	30.173 
14:00	74.0	74.0	74.0	37	46.1	1	4	112	0.00	30.168 
14:05	73.9	73.9	73.9	40	48.0	0	2	68	0.00	30.168 
14:10	74.6	74.6	74.6	38	47.3	1	4	68	0.00	30.168 
14:15	74.9	74.9	74.9	39	48.3	1	3	68	0.00	30.163 
14:20	74.6	74.6	74.6	40	48.7	2	6	90	0.00	30.163 
14:25	74.9	74.9	74.9	41	49.6	0	2	90	0.00	30.163 
14:30	75.3	75.3	77.5	39	48.6	0	1	90	0.00	30.159 
14:35	75.1	75.1	77.3	36	46.3	1	3	90	0.00	30.159 
14:40	74.6	74.6	74.6	38	47.3	1	3	338	0.00	30.159 
14:45	74.9	74.9	74.9	39	48.3	0	2	338	0.00	30.157 
14:50	75.3	75.3	77.5	39	48.6	0	2	338	0.00	30.157 
14:55	75.8	75.8	77.6	36	46.9	1	3	90	0.00	30.157 
15:00	75.6	75.6	77.5	36	46.7	1	3	90	0.00	30.154 
15:05	75.3	75.3	77.4	35	45.7	1	2	90	0.00	30.154 
15:10	75.6	75.6	77.6	39	48.9	0	2	90	0.00	30.154 
15:15	75.6	75.6	77.4	35	46.0	1	6	90	0.00	30.153 
15:20	75.4	75.4	77.5	37	47.3	1	4	90	0.00	30.153 
15:25	75.3	75.3	77.3	34	45.0	0	3	90	0.00	30.153 
15:30	75.4	75.4	77.6	39	48.7	1	3	90	0.00	30.149 
15:35	75.1	75.1	77.4	38	47.7	1	3	90	0.00	30.149 
15:40	74.4	74.4	74.4	39	47.8	1	3	90	0.00	30.149 
15:45	74.0	74.0	74.0	36	45.3	0	3	90	0.00	30.145 
15:50	73.7	73.7	73.7	38	46.5	0	3	90	0.00	30.145 
15:55	73.5	73.5	73.5	39	47.0	0	2	90	0.00	30.145 
16:00	73.5	73.5	73.5	40	47.7	0	2	90	0.00	30.141 
16:05	73.5	73.5	73.5	35	44.2	1	3	90	0.00	30.141 
16:10	73.3	73.3	73.3	37	45.4	0	2	338	0.00	30.141 
16:15	74.0	74.0	74.0	43	50.1	0	2	338	0.00	30.143 
16:20	74.7	74.7	74.7	36	46.0	0	1	338	0.00	30.143 
16:25	75.4	75.4	77.3	34	45.1	0	3	45	0.00	30.143 
16:30	76.0	76.0	77.5	34	45.6	0	2	45	0.00	30.135 
16:35	75.6	75.6	77.4	35	46.0	0	1	45	0.00	30.135 
16:40	75.6	75.6	77.5	36	46.7	1	3	45	0.00	30.135 
16:45	75.8	75.8	77.7	38	48.4	1	4	135	0.00	30.129 
16:50	76.0	76.0	77.6	35	46.4	1	4	135	0.00	30.129 
16:55	76.0	76.0	77.5	34	45.6	1	3	135	0.00	30.129 
17:00	76.3	76.3	77.6	34	45.8	1	4	135	0.00	30.129 
17:05	76.1	76.1	77.4	32	44.1	1	4	112	0.00	30.129 
17:10	75.8	75.8	77.4	33	44.6	0	2	112	0.00	30.129 
17:15	75.8	75.8	77.5	35	46.2	0	0	---	0.00	30.130 
17:20	75.8	75.8	77.6	36	46.9	0	1	112	0.00	30.130 
17:25	75.4	75.4	77.4	35	45.8	0	1	112	0.00	30.130 
17:30	75.3	75.3	77.5	37	47.2	0	0	---	0.00	30.129 
17:35	75.1	75.1	77.4	38	47.7	0	1	112	0.00	30.129 
17:40	75.3	75.3	77.4	35	45.7	0	2	112	0.00	30.129 
17:45	75.6	75.6	77.5	36	46.7	0	1	112	0.00	30.124 
17:50	75.8	75.8	77.5	35	46.2	0	1	112	0.00	30.124 
17:55	75.6	75.6	77.4	34	45.2	0	1	112	0.00	30.124 
18:00	75.1	75.1	77.3	35	45.6	0	1	112	0.00	30.120 
18:05	74.9	74.9	74.9	38	47.6	0	2	112	0.00	30.120 
18:10	74.4	74.4	74.4	35	44.9	0	1	112	0.00	30.120 
18:15	74.4	74.4	74.4	36	45.7	0	1	112	0.00	30.122 
18:20	74.2	74.2	74.2	35	44.8	0	1	112	0.00	30.122 
18:25	73.9	73.9	73.9	37	46.0	0	1	112	0.00	30.122 
18:30	73.7	73.7	73.7	36	45.1	0	0	---	0.00	30.116 
18:35	73.7	73.7	73.7	38	46.5	0	1	112	0.00	30.116 
18:40	73.9	73.9	73.9	40	48.0	0	1	112	0.00	30.116 
18:45	73.9	73.9	73.9	39	47.4	0	1	112	0.00	30.115 
18:50	73.9	73.9	73.9	37	46.0	0	1	112	0.00	30.115 
18:55	73.9	73.9	73.9	38	46.7	0	1	112	0.00	30.115 
19:00	74.0	74.0	74.0	39	47.5	0	0	---	0.00	30.115 
19:05	74.0	74.0	74.0	37	46.1	0	1	112	0.00	30.115 
19:10	73.9	73.9	73.9	36	45.2	0	2	112	0.00	30.115 
19:15	73.9	73.9	73.9	37	46.0	0	1	112	0.00	30.106 
19:20	73.7	73.7	73.7	38	46.5	0	0	---	0.00	30.106 
19:25	73.7	73.7	73.7	36	45.1	0	0	---	0.00	30.106 
19:30	73.5	73.5	73.5	36	44.9	0	0	---	0.00	30.107 
19:35	73.3	73.3	73.3	36	44.7	0	0	---	0.00	30.107 
19:40	73.3	73.3	73.3	39	46.8	0	0	---	0.00	30.107 
19:45	73.2	73.2	73.2	39	46.7	0	0	---	0.00	30.111 
19:50	73.2	73.2	73.2	40	47.4	0	0	---	0.00	30.111 
19:55	73.0	73.0	73.0	38	45.9	0	1	112	0.00	30.111 
20:00	72.7	72.7	72.7	39	46.3	0	0	---	0.00	30.113 
20:05	72.5	72.5	72.5	40	46.8	0	0	---	0.00	30.113 
20:10	72.1	72.1	72.1	41	47.1	0	0	---	0.00	30.113 
20:15	72.0	72.0	72.0	42	47.6	0	0	---	0.00	30.106 
20:20	71.6	71.6	71.6	42	47.3	0	0	---	0.00	30.106 
20:25	71.5	71.5	71.5	41	46.5	0	0	---	0.00	30.106 
20:30	71.3	71.3	71.3	41	46.4	0	0	---	0.00	30.105 
20:35	70.9	70.9	70.9	41	46.0	0	0	---	0.00	30.105 
20:40	70.6	70.6	70.6	41	45.7	0	0	---	0.00	30.105 
20:45	70.3	70.3	70.3	42	46.1	0	0	---	0.00	30.105 
20:50	69.8	69.8	69.8	43	46.3	0	0	---	0.00	30.105 
20:55	69.3	69.3	69.3	45	47.0	0	0	---	0.00	30.105 
21:00	68.8	68.8	68.8	47	47.7	0	0	---	0.00	30.106 
21:05	68.3	68.3	68.3	49	48.4	0	0	---	0.00	30.106 
21:10	67.8	67.8	67.8	50	48.5	0	0	---	0.00	30.106 
21:15	67.3	67.3	67.3	53	49.6	0	0	---	0.00	30.104 
21:20	66.8	66.8	66.8	54	49.6	0	0	---	0.00	30.104 
21:25	66.1	66.1	66.1	54	49.0	0	0	---	0.00	30.104 
21:30	65.8	65.8	65.8	54	48.7	0	0	---	0.00	30.110 
21:35	65.3	65.3	65.3	56	49.2	0	0	---	0.00	30.110 
21:40	65.0	65.0	65.0	56	48.9	0	0	---	0.00	30.110 
21:45	64.5	64.5	64.5	57	48.9	0	0	---	0.00	30.109 
21:50	64.3	64.3	64.3	58	49.2	0	0	---	0.00	30.109 
21:55	63.9	63.9	63.9	60	49.7	0	0	---	0.00	30.109 
22:00	63.5	63.5	63.5	61	49.8	0	0	---	0.00	30.110 
22:05	63.2	63.2	63.2	63	50.4	0	0	---	0.00	30.110 
22:10	62.9	62.9	62.9	63	50.1	0	0	---	0.00	30.110 
22:15	62.4	62.4	62.4	63	49.6	0	0	---	0.00	30.115 
22:20	62.1	62.1	62.1	64	49.8	0	0	---	0.00	30.115 
22:25	62.0	62.0	62.0	64	49.7	0	0	---	0.00	30.115 
22:30	61.6	61.6	61.6	65	49.7	0	0	---	0.00	30.120 
22:35	61.3	61.3	61.3	67	50.2	0	0	---	0.00	30.120 
22:40	61.2	61.2	61.2	67	50.2	0	0	---	0.00	30.120 
22:45	60.9	60.9	60.9	67	49.9	0	0	---	0.00	30.121 
22:50	60.5	60.5	60.5	68	49.9	0	0	---	0.00	30.121 
22:55	60.4	60.4	60.4	68	49.8	0	0	---	0.00	30.121 
23:00	60.1	60.1	60.1	69	49.9	0	3	112	0.00	30.125 
23:05	59.9	59.9	59.9	70	50.1	0	2	112	0.00	30.125 
23:10	59.6	59.6	59.6	71	50.2	0	0	---	0.00	30.125 
23:15	59.5	59.5	59.5	72	50.5	0	0	---	0.00	30.123 
23:20	59.3	59.3	59.3	72	50.3	0	0	---	0.00	30.123 
23:25	59.0	59.0	59.0	72	50.0	0	0	---	0.00	30.123 
23:30	58.9	58.9	58.9	73	50.3	0	0	---	0.00	30.123 
23:35	58.6	58.6	58.6	73	50.0	0	0	---	0.00	30.123 
23:40	58.4	58.4	58.4	74	50.1	0	0	---	0.00	30.123 
23:45	58.3	58.3	58.3	75	50.4	0	0	---	0.00	30.121 
23:50	58.1	58.1	58.1	75	50.2	0	0	---	0.00	30.121 
23:55	58.0	58.0	58.0	75	50.1	0	0	---	0.00	30.121 

CoCoRaHS
IN-AL-39
A2 Web Hosting
Creative Commons License
GoDaddy
search engine by freefind advanced

loaded 2018-11-21 00:44:58 • last modified 2010-11-18 10:43:29
Privacy PolicyDisclaimer
• wx.awcolley.com is powered by PmWiki v.2002016 •
• all content (unless otherwise noted) © 2018 A W Colley